< < Back
Terminal Aerodrome Forecast


Current Version              Previous Versions:   1  2  3  4  5  6  7  8  9  

Terminal Aerodrome Forecast

232
FTUS44 KMOB 021816 RRA
TAFPNS
TAF
KPNS 021816Z 0218/0318 VRB04KT P6SM SCT050 BKN250
     FM030600 VRB02KT P6SM OVC250
     FM031500 20006KT P6SM VCSH SCT050 BKN250=



Latest METAR

226
SAUS70 KWBC 030900 RRB
MTRPNS
METAR KPNS 030853Z AUTO 32004KT 10SM CLR 26/23 A2996 RMK AO2 SLP146
T02560233 56011 $


USA.gov is the U.S. government's official web portal to all federal, state and local government web resources and services.